Time;durP1;ratioP1;P1;durP2;ratioP2;P2;SDS_P1;SDS_P2;PMS_P1;PMS_P2;Temp;Humidity;BMP_temperature;BMP_pressure;BME280_temperature;BME280_humidity;BME280_pressure;Samples;Min_cycle;Max_cycle;Signal;HPM_P1;HPM_P2
2022/12/12 00:01:25;;;;;;;24.27;18.60;;;-3.30;99.90;;;;;;4995091;28;20520;-71
2022/12/12 00:03:53;;;;;;;25.23;18.00;;;-3.30;99.90;;;;;;4995231;28;20481;-74
2022/12/12 00:06:24;;;;;;;24.10;18.40;;;-3.40;99.90;;;;;;4995281;28;20477;-75
2022/12/12 00:08:53;;;;;;;24.23;18.07;;;-3.40;99.90;;;;;;4995291;28;20463;-73
2022/12/12 00:11:22;;;;;;;26.07;18.70;;;-3.40;99.90;;;;;;4994972;28;20533;-75
2022/12/12 00:13:51;;;;;;;29.10;19.37;;;-3.30;99.90;;;;;;4994960;28;21007;-73
2022/12/12 00:16:20;;;;;;;27.87;19.37;;;-3.40;99.90;;;;;;4994902;28;20477;-72
2022/12/12 00:18:48;;;;;;;25.73;18.37;;;-3.40;99.90;;;;;;4994976;28;20486;-73
2022/12/12 00:21:19;;;;;;;26.27;19.03;;;-3.40;99.90;;;;;;4994435;28;20499;-76
2022/12/12 00:23:48;;;;;;;26.20;19.40;;;-3.40;99.90;;;;;;4994361;28;20454;-73
2022/12/12 00:26:19;;;;;;;28.50;19.50;;;-3.40;99.90;;;;;;5000994;28;20520;-73
2022/12/12 00:28:48;;;;;;;27.90;19.60;;;-3.40;99.90;;;;;;5005460;28;20525;-75
2022/12/12 00:31:17;;;;;;;26.77;18.83;;;-3.40;99.90;;;;;;5004099;28;20458;-73
2022/12/12 00:33:48;;;;;;;28.10;19.23;;;-3.40;99.90;;;;;;4995263;28;20461;-75
2022/12/12 00:36:19;;;;;;;25.97;19.00;;;-3.40;99.90;;;;;;5007850;28;20816;-75
2022/12/12 00:38:49;;;;;;;26.10;18.83;;;-3.50;99.90;;;;;;5005626;28;20571;-73
2022/12/12 00:41:18;;;;;;;25.50;18.80;;;-3.50;99.90;;;;;;5014785;28;20480;-75
2022/12/12 00:43:47;;;;;;;26.20;19.17;;;-3.50;99.90;;;;;;5014120;28;20832;-74
2022/12/12 00:46:17;;;;;;;26.37;19.50;;;-3.40;99.90;;;;;;5013714;28;20946;-73
2022/12/12 00:48:45;;;;;;;26.90;19.20;;;-3.50;99.90;;;;;;5013941;28;20484;-75
2022/12/12 00:51:17;;;;;;;27.70;19.90;;;-3.60;99.90;;;;;;5013791;28;20872;-73
2022/12/12 00:53:47;;;;;;;24.77;18.40;;;-3.50;99.90;;;;;;4994013;28;20432;-72
2022/12/12 00:56:21;;;;;;;28.30;19.83;;;-3.60;99.90;;;;;;4994082;28;20549;-73
2022/12/12 00:58:50;;;;;;;27.23;19.80;;;-3.60;99.90;;;;;;4994184;28;20516;-73
2022/12/12 01:01:21;;;;;;;27.63;19.13;;;-3.60;99.90;;;;;;4993879;28;20489;-73
2022/12/12 01:03:49;;;;;;;28.07;20.07;;;-3.60;99.90;;;;;;4993895;28;20839;-73
2022/12/12 01:06:18;;;;;;;26.27;19.23;;;-3.60;99.90;;;;;;4996951;28;20553;-73
2022/12/12 01:08:46;;;;;;;25.97;18.90;;;-3.60;99.90;;;;;;5013567;28;20452;-72
2022/12/12 01:11:16;;;;;;;26.20;19.33;;;-3.70;99.90;;;;;;5013744;28;20464;-73
2022/12/12 01:13:47;;;;;;;28.77;19.80;;;-3.70;99.90;;;;;;5013024;28;20507;-72
2022/12/12 01:16:15;;;;;;;29.10;19.80;;;-3.70;99.90;;;;;;5000663;28;20465;-73
2022/12/12 01:18:43;;;;;;;27.30;19.07;;;-3.70;99.90;;;;;;4993628;28;20457;-74
2022/12/12 01:21:13;;;;;;;27.10;19.20;;;-3.70;99.90;;;;;;4993798;28;20489;-74
2022/12/12 01:23:42;;;;;;;27.47;19.70;;;-3.70;99.90;;;;;;4993348;28;20454;-73
2022/12/12 01:26:13;;;;;;;27.03;19.87;;;-3.70;99.90;;;;;;4993465;28;20963;-74
2022/12/12 01:28:42;;;;;;;26.70;19.10;;;-3.70;99.90;;;;;;4993912;28;20433;-74
2022/12/12 01:31:12;;;;;;;28.13;19.87;;;-3.70;99.90;;;;;;4993762;28;20504;-74
2022/12/12 01:33:44;;;;;;;28.43;19.67;;;-3.80;99.90;;;;;;4993534;28;20473;-74
2022/12/12 01:36:15;;;;;;;26.87;19.30;;;-3.70;99.90;;;;;;4994108;28;20763;-73
2022/12/12 01:38:44;;;;;;;26.83;19.00;;;-3.80;99.90;;;;;;4993915;28;20464;-73
2022/12/12 01:41:14;;;;;;;26.73;19.03;;;-3.90;99.90;;;;;;5004569;28;20460;-73
2022/12/12 01:43:42;;;;;;;25.90;19.23;;;-3.80;99.90;;;;;;5015727;28;20515;-76
2022/12/12 01:46:33;;;;;;;29.57;19.63;;;-3.80;99.90;;;;;;5015808;28;20455;-75
2022/12/12 01:49:06;;;;;;;27.87;19.63;;;-3.80;99.90;;;;;;4998809;28;20832;-76
2022/12/12 01:51:34;;;;;;;27.93;20.13;;;-3.80;99.90;;;;;;4993184;28;20433;-74
2022/12/12 01:54:08;;;;;;;27.47;19.60;;;-3.80;99.90;;;;;;4992770;28;20470;-72
2022/12/12 01:56:37;;;;;;;27.27;19.47;;;-3.90;99.90;;;;;;4998570;28;20485;-75
2022/12/12 01:59:08;;;;;;;28.67;19.67;;;-3.90;99.90;;;;;;4993021;28;20469;-74
2022/12/12 02:01:38;;;;;;;25.70;19.50;;;-3.90;99.90;;;;;;4992731;28;20952;-72
2022/12/12 02:04:09;;;;;;;27.53;19.20;;;-3.90;99.90;;;;;;4993855;28;20445;-72
2022/12/12 02:06:38;;;;;;;27.20;19.50;;;-3.90;99.90;;;;;;5008071;28;20495;-74
2022/12/12 02:09:11;;;;;;;27.27;19.60;;;-3.90;99.90;;;;;;4993091;28;20457;-76
2022/12/12 02:11:44;;;;;;;25.07;18.80;;;-3.80;99.90;;;;;;4993713;28;20512;-73
2022/12/12 02:14:16;;;;;;;26.73;18.80;;;-3.80;99.90;;;;;;4993359;28;20499;-73
2022/12/12 02:17:18;;;;;;;28.73;19.73;;;-3.80;99.90;;;;;;4993495;28;20837;-73
2022/12/12 02:20:18;;;;;;;28.13;19.40;;;-3.80;99.90;;;;;;4993847;28;20930;-73
2022/12/12 02:23:26;;;;;;;27.57;19.30;;;-3.90;99.90;;;;;;4993712;28;20497;-73
2022/12/12 02:26:16;;;;;;;26.77;19.00;;;-3.90;99.90;;;;;;4994206;28;20457;-72
2022/12/12 02:29:24;;;;;;;27.50;19.70;;;-3.90;99.90;;;;;;4992960;28;20484;-72
2022/12/12 02:31:59;;;;;;;27.63;18.70;;;-3.90;99.90;;;;;;4993080;28;20426;-74
2022/12/12 02:34:33;;;;;;;25.30;18.00;;;-4.00;99.90;;;;;;4993548;28;20468;-73
2022/12/12 02:37:11;;;;;;;27.40;18.50;;;-4.00;99.90;;;;;;4993027;28;20797;-74
2022/12/12 02:39:47;;;;;;;27.13;19.33;;;-4.00;99.90;;;;;;4993357;28;20901;-74
2022/12/12 02:42:25;;;;;;;28.40;19.27;;;-4.00;99.90;;;;;;4994897;28;20487;-75
2022/12/12 02:44:59;;;;;;;26.90;18.83;;;-4.00;99.90;;;;;;4997194;28;20714;-76
2022/12/12 02:47:32;;;;;;;28.17;19.83;;;-4.00;99.90;;;;;;4997661;28;20562;-77
2022/12/12 02:50:06;;;;;;;28.87;20.13;;;-4.00;99.90;;;;;;4997640;28;20424;-76
2022/12/12 02:52:34;;;;;;;26.80;18.77;;;-4.10;99.90;;;;;;4994913;28;20432;-73
2022/12/12 02:55:02;;;;;;;27.33;19.13;;;-4.00;99.90;;;;;;4999232;28;20471;-75
2022/12/12 02:57:32;;;;;;;26.80;19.37;;;-4.10;99.90;;;;;;4997252;28;20445;-74
2022/12/12 03:00:04;;;;;;;28.83;18.93;;;-4.00;99.90;;;;;;4996915;28;20543;-75
2022/12/12 03:08:51;;;;;;;26.83;18.80;;;-4.00;99.90;;;;;;5028833;28;20463;-76
2022/12/12 03:11:30;;;;;;;25.83;18.47;;;-4.00;99.90;;;;;;5017116;28;20436;-72
2022/12/12 03:14:03;;;;;;;26.97;18.97;;;-4.00;99.90;;;;;;5003977;28;20855;-72
2022/12/12 03:16:38;;;;;;;26.97;18.87;;;-4.00;99.90;;;;;;4995758;28;20485;-72
2022/12/12 03:19:15;;;;;;;25.43;18.70;;;-4.00;99.90;;;;;;4995839;28;20453;-71
2022/12/12 03:21:49;;;;;;;26.17;18.80;;;-4.00;99.90;;;;;;4995709;28;20469;-72
2022/12/12 03:24:23;;;;;;;26.43;18.40;;;-4.00;99.90;;;;;;4995539;28;20987;-73
2022/12/12 03:26:58;;;;;;;28.63;18.53;;;-4.00;99.90;;;;;;4996012;28;20441;-74
2022/12/12 03:29:31;;;;;;;28.37;19.17;;;-4.00;99.90;;;;;;5004542;28;20464;-72
2022/12/12 03:32:05;;;;;;;28.33;18.93;;;-4.00;99.90;;;;;;5011063;28;20983;-73
2022/12/12 03:34:38;;;;;;;27.23;19.30;;;-4.00;99.90;;;;;;5015175;28;20463;-72
2022/12/12 03:37:11;;;;;;;26.10;18.13;;;-4.10;99.90;;;;;;5008678;28;20454;-73
2022/12/12 03:39:46;;;;;;;27.27;18.27;;;-4.10;99.90;;;;;;5005960;28;20468;-73
2022/12/12 03:42:19;;;;;;;25.93;18.33;;;-4.10;99.90;;;;;;5014616;28;20425;-74
2022/12/12 03:44:52;;;;;;;26.73;18.67;;;-4.10;99.90;;;;;;5015536;28;20440;-74
2022/12/12 03:47:25;;;;;;;27.40;18.93;;;-4.10;99.90;;;;;;5010831;28;20480;-73
2022/12/12 03:50:02;;;;;;;26.27;18.70;;;-4.10;99.90;;;;;;4995146;28;20584;-75
2022/12/12 03:52:33;;;;;;;27.83;18.30;;;-4.10;99.90;;;;;;4994927;28;20560;-74
2022/12/12 03:55:08;;;;;;;27.90;19.07;;;-4.10;99.90;;;;;;4995354;28;20429;-72
2022/12/12 03:57:41;;;;;;;27.47;19.23;;;-4.10;99.90;;;;;;4995354;28;20490;-72
2022/12/12 04:00:14;;;;;;;26.30;19.17;;;-4.10;99.90;;;;;;4977827;28;20466;-73
2022/12/12 04:02:50;;;;;;;27.43;18.60;;;-4.10;99.90;;;;;;5003209;28;20818;-72
2022/12/12 04:05:24;;;;;;;26.30;19.13;;;-4.20;99.90;;;;;;5013240;28;20577;-73
2022/12/12 04:07:58;;;;;;;27.27;19.07;;;-4.20;99.90;;;;;;4995094;28;20429;-73
2022/12/12 04:13:30;;;;;;;24.80;18.30;;;-4.20;99.90;;;;;;4994529;28;20485;-76
2022/12/12 04:16:04;;;;;;;26.43;18.23;;;-4.10;99.90;;;;;;4993861;28;20963;-75
2022/12/12 04:18:39;;;;;;;26.53;18.53;;;-4.20;99.90;;;;;;4995047;28;20525;-72
2022/12/12 04:24:15;;;;;;;26.93;19.60;;;-4.20;99.90;;;;;;4994733;28;20485;-74
2022/12/12 04:26:49;;;;;;;25.83;18.10;;;-4.30;99.90;;;;;;4999030;28;20449;-73
2022/12/12 04:29:27;;;;;;;28.43;19.07;;;-4.30;99.90;;;;;;5007378;28;20442;-73
2022/12/12 04:32:03;;;;;;;30.47;19.13;;;-4.40;99.90;;;;;;5001270;28;20555;-74
2022/12/12 04:34:41;;;;;;;27.33;19.37;;;-4.30;99.90;;;;;;4994618;28;20865;-74
2022/12/12 04:37:15;;;;;;;28.40;19.33;;;-4.30;99.90;;;;;;4994310;28;20421;-75
2022/12/12 04:39:47;;;;;;;27.03;19.40;;;-4.40;99.90;;;;;;4994064;28;20719;-74
2022/12/12 04:42:21;;;;;;;30.93;19.80;;;-4.40;99.90;;;;;;4993999;28;20466;-76
2022/12/12 04:44:52;;;;;;;28.50;20.20;;;-4.40;99.90;;;;;;4994279;28;20839;-75
2022/12/12 04:47:21;;;;;;;29.60;19.17;;;-4.40;99.90;;;;;;4994496;28;20465;-73
2022/12/12 04:49:51;;;;;;;29.93;19.63;;;-4.40;99.90;;;;;;4993713;28;20449;-74
2022/12/12 04:52:24;;;;;;;29.97;20.20;;;-4.40;99.90;;;;;;4993870;28;20544;-76
2022/12/12 04:54:59;;;;;;;26.70;19.10;;;-4.40;99.90;;;;;;4994139;28;20433;-76
2022/12/12 04:57:31;;;;;;;28.20;19.57;;;-4.40;99.90;;;;;;4993533;28;20473;-75
2022/12/12 05:00:00;;;;;;;27.87;19.07;;;-4.40;99.90;;;;;;5009353;28;20470;-75
2022/12/12 05:02:34;;;;;;;30.77;20.40;;;-4.40;99.90;;;;;;5011614;28;20452;-72
2022/12/12 05:05:07;;;;;;;26.97;19.13;;;-4.40;99.90;;;;;;5001261;28;20484;-74
2022/12/12 05:07:40;;;;;;;29.20;19.07;;;-4.40;99.90;;;;;;4994014;28;20444;-74
2022/12/12 05:10:13;;;;;;;29.07;19.63;;;-4.40;99.90;;;;;;4993844;28;20788;-72
2022/12/12 05:12:44;;;;;;;27.70;18.63;;;-4.40;99.90;;;;;;4993545;28;20563;-72
2022/12/12 05:15:13;;;;;;;27.70;19.00;;;-4.40;99.90;;;;;;4993799;28;20931;-72
2022/12/12 05:17:45;;;;;;;29.23;20.33;;;-4.40;99.90;;;;;;4993762;28;20513;-73
2022/12/12 05:20:13;;;;;;;29.87;20.07;;;-4.40;99.90;;;;;;4993387;28;20478;-75
2022/12/12 05:22:43;;;;;;;29.90;20.20;;;-4.30;99.90;;;;;;4993346;28;20556;-72
2022/12/12 05:25:12;;;;;;;32.93;20.67;;;-4.30;99.90;;;;;;4993233;28;20478;-75
2022/12/12 05:27:41;;;;;;;30.13;21.13;;;-4.40;99.90;;;;;;4992463;28;20469;-74
2022/12/12 05:30:10;;;;;;;29.40;20.37;;;-4.40;99.90;;;;;;4993824;28;20589;-74
2022/12/12 05:32:39;;;;;;;29.97;19.93;;;-4.30;99.90;;;;;;4992737;28;20471;-73
2022/12/12 05:35:09;;;;;;;31.83;19.97;;;-4.30;99.90;;;;;;4997210;28;20461;-74
2022/12/12 05:37:37;;;;;;;28.80;19.73;;;-4.30;99.90;;;;;;5005461;28;20918;-72
2022/12/12 05:40:09;;;;;;;30.77;21.20;;;-4.30;99.90;;;;;;5012973;28;20833;-72
2022/12/12 05:42:37;;;;;;;29.40;19.70;;;-4.30;99.90;;;;;;5012800;28;20439;-72
2022/12/12 05:45:08;;;;;;;28.73;20.07;;;-4.30;99.90;;;;;;5003180;28;20493;-75
2022/12/12 05:47:37;;;;;;;26.40;19.03;;;-4.30;99.90;;;;;;4993864;28;20449;-74
2022/12/12 05:50:07;;;;;;;29.93;19.80;;;-4.30;99.90;;;;;;4993191;28;20461;-73
2022/12/12 05:52:35;;;;;;;27.87;19.73;;;-4.20;99.90;;;;;;4992858;28;20442;-75
2022/12/12 05:55:04;;;;;;;28.03;19.63;;;-4.30;99.90;;;;;;4996437;28;21008;-74
2022/12/12 05:57:33;;;;;;;29.27;19.97;;;-4.20;99.90;;;;;;5004887;28;20804;-73
2022/12/12 06:00:03;;;;;;;29.77;20.43;;;-4.20;99.90;;;;;;5004997;28;20838;-74
2022/12/12 06:02:31;;;;;;;31.57;20.40;;;-4.30;99.90;;;;;;4999317;28;20469;-72
2022/12/12 06:05:00;;;;;;;31.60;21.20;;;-4.20;99.90;;;;;;5000169;28;20473;-75
2022/12/12 06:07:28;;;;;;;31.37;20.40;;;-4.20;99.90;;;;;;5001094;28;20470;-74
2022/12/12 06:09:56;;;;;;;28.67;20.17;;;-4.20;99.90;;;;;;4995680;28;20456;-72
2022/12/12 06:12:27;;;;;;;30.80;21.00;;;-4.00;99.90;;;;;;5012509;28;20440;-76
2022/12/12 06:14:57;;;;;;;29.97;22.10;;;-4.20;99.90;;;;;;5013119;28;20879;-74
2022/12/12 06:17:25;;;;;;;32.83;24.33;;;-4.20;99.90;;;;;;5004559;28;20479;-73
2022/12/12 06:20:00;;;;;;;30.13;20.70;;;-4.20;99.90;;;;;;4998853;28;20453;-72
2022/12/12 06:22:29;;;;;;;30.33;21.27;;;-4.10;99.90;;;;;;5004044;28;20445;-73
2022/12/12 06:24:57;;;;;;;30.87;20.53;;;-4.10;99.90;;;;;;5001148;28;20473;-75
2022/12/12 06:27:25;;;;;;;32.60;21.10;;;-4.20;99.90;;;;;;5004562;28;20468;-74
2022/12/12 06:29:53;;;;;;;32.50;21.90;;;-4.10;99.90;;;;;;5001015;28;20567;-72
2022/12/12 06:32:22;;;;;;;31.27;21.10;;;-4.10;99.90;;;;;;5007725;28;20448;-74
2022/12/12 06:34:51;;;;;;;29.80;20.40;;;-4.00;99.90;;;;;;5006830;28;20469;-72
2022/12/12 06:37:19;;;;;;;28.50;20.97;;;-4.20;99.90;;;;;;4993935;28;20818;-73
2022/12/12 06:39:47;;;;;;;34.30;22.53;;;-4.10;99.90;;;;;;4997213;28;20461;-76
2022/12/12 06:42:16;;;;;;;27.03;20.13;;;-4.20;99.90;;;;;;4996768;28;20454;-72
2022/12/12 06:44:46;;;;;;;29.47;19.87;;;-4.20;99.90;;;;;;4997435;28;20491;-72
2022/12/12 06:47:14;;;;;;;29.07;20.50;;;-4.20;99.90;;;;;;4997942;28;20521;-72
2022/12/12 06:49:44;;;;;;;31.20;21.80;;;-4.20;99.90;;;;;;4997134;28;20464;-74
2022/12/12 06:52:12;;;;;;;29.07;20.00;;;-4.10;99.90;;;;;;4996500;28;20546;-76
2022/12/12 06:54:40;;;;;;;28.30;19.40;;;-4.20;99.90;;;;;;5000741;28;20455;-74
2022/12/12 06:57:08;;;;;;;32.20;20.47;;;-4.20;99.90;;;;;;4998400;28;20536;-76
2022/12/12 06:59:40;;;;;;;29.13;20.30;;;-4.20;99.90;;;;;;5017698;28;20452;-72
2022/12/12 07:02:10;;;;;;;26.53;19.10;;;-4.20;99.90;;;;;;4996837;28;20508;-72
2022/12/12 07:04:39;;;;;;;27.33;18.97;;;-4.10;99.90;;;;;;4996763;28;20571;-75
2022/12/12 07:07:08;;;;;;;27.30;18.90;;;-4.20;99.90;;;;;;4996832;28;20517;-73
2022/12/12 07:09:36;;;;;;;22.67;17.43;;;-4.20;99.90;;;;;;4996599;28;20457;-73
2022/12/12 07:12:05;;;;;;;27.97;19.87;;;-4.30;99.90;;;;;;4996613;28;20453;-75
2022/12/12 07:14:33;;;;;;;24.43;18.00;;;-4.30;99.90;;;;;;5001029;28;20488;-75
2022/12/12 07:17:01;;;;;;;28.00;19.70;;;-4.30;99.90;;;;;;4997581;28;20463;-74
2022/12/12 07:19:29;;;;;;;27.57;18.67;;;-4.40;99.90;;;;;;4996761;28;20587;-73
2022/12/12 07:21:58;;;;;;;25.87;18.47;;;-4.30;99.90;;;;;;4998038;28;20448;-73
2022/12/12 07:24:36;;;;;;;26.37;18.27;;;-4.40;99.90;;;;;;4996796;28;20546;-74
2022/12/12 07:27:05;;;;;;;29.90;20.10;;;-4.50;99.90;;;;;;4997135;28;20441;-74
2022/12/12 07:29:34;;;;;;;29.70;19.70;;;-4.60;99.90;;;;;;5006189;28;20468;-73
2022/12/12 07:32:02;;;;;;;28.10;17.67;;;-4.60;99.90;;;;;;5016396;28;20480;-73
2022/12/12 07:34:31;;;;;;;30.93;20.07;;;-4.50;99.90;;;;;;5017002;28;20467;-72
2022/12/12 07:36:59;;;;;;;42.73;28.03;;;-4.50;99.90;;;;;;5015923;28;20487;-73
2022/12/12 07:39:30;;;;;;;28.37;18.77;;;-4.60;99.90;;;;;;5009413;28;20479;-73
2022/12/12 07:42:00;;;;;;;28.37;17.87;;;-4.60;99.90;;;;;;5005204;28;20564;-73
2022/12/12 07:44:28;;;;;;;31.27;21.07;;;-4.60;99.90;;;;;;5010947;28;20929;-73
2022/12/12 07:46:57;;;;;;;27.90;19.07;;;-4.60;99.90;;;;;;5011015;28;20454;-73
2022/12/12 07:49:26;;;;;;;29.80;21.03;;;-4.70;99.90;;;;;;5008362;28;20484;-73
2022/12/12 07:51:54;;;;;;;30.93;20.27;;;-4.60;99.90;;;;;;5010032;28;20464;-73
2022/12/12 07:54:22;;;;;;;31.90;22.17;;;-4.60;99.90;;;;;;5005409;28;20449;-73
2022/12/12 07:56:50;;;;;;;31.23;22.37;;;-4.50;99.90;;;;;;5005829;28;20468;-73
2022/12/12 07:59:21;;;;;;;34.93;20.70;;;-4.50;99.90;;;;;;5004029;28;20454;-73
2022/12/12 08:01:49;;;;;;;28.90;18.30;;;-4.20;99.90;;;;;;5008617;28;20472;-74
2022/12/12 08:04:21;;;;;;;27.10;18.17;;;-4.00;99.90;;;;;;5010394;28;20461;-74
2022/12/12 08:06:49;;;;;;;25.20;17.50;;;-3.70;99.90;;;;;;5003756;28;20495;-74
2022/12/12 08:09:26;;;;;;;22.80;16.10;;;-3.30;99.90;;;;;;5006923;28;20453;-74
2022/12/12 08:11:59;;;;;;;23.13;17.77;;;-3.10;99.90;;;;;;5015124;28;20930;-76
2022/12/12 08:14:29;;;;;;;19.83;14.97;;;-2.80;99.90;;;;;;5015231;28;20944;-75
2022/12/12 08:16:57;;;;;;;17.10;13.90;;;-2.50;99.90;;;;;;5003480;28;20458;-75
2022/12/12 08:19:26;;;;;;;18.77;13.87;;;-2.30;99.90;;;;;;5023761;28;20462;-76
2022/12/12 08:21:54;;;;;;;17.63;12.87;;;-1.70;99.90;;;;;;5011680;28;20206;-77
2022/12/12 08:24:27;;;;;;;17.23;12.27;;;-1.10;99.90;;;;;;5004395;28;20297;-76
2022/12/12 08:26:55;;;;;;;14.60;11.00;;;-0.80;99.90;;;;;;5001570;28;20273;-77
2022/12/12 08:29:24;;;;;;;15.80;12.53;;;-1.10;99.90;;;;;;5030029;28;20279;-77
2022/12/12 08:31:53;;;;;;;17.67;13.67;;;-1.10;99.90;;;;;;5028349;28;20216;-76
2022/12/12 08:34:22;;;;;;;17.10;13.60;;;-1.20;99.90;;;;;;5029291;28;20667;-76
2022/12/12 08:36:51;;;;;;;16.73;13.03;;;-1.50;99.90;;;;;;5015251;28;20639;-75
2022/12/12 08:39:19;;;;;;;18.83;13.43;;;-1.60;99.90;;;;;;5029502;28;20221;-76
2022/12/12 08:41:50;;;;;;;20.20;13.87;;;-1.60;99.90;;;;;;5017830;28;20241;-75
2022/12/12 08:44:20;;;;;;;19.33;15.43;;;-1.40;99.90;;;;;;5015584;28;20194;-75
2022/12/12 08:46:49;;;;;;;20.10;15.27;;;-1.50;99.90;;;;;;5015014;28;20249;-76
2022/12/12 08:49:20;;;;;;;20.37;15.33;;;-1.40;99.90;;;;;;5018630;28;20638;-75
2022/12/12 08:51:50;;;;;;;21.53;15.37;;;-1.30;99.90;;;;;;4999689;28;20244;-74
2022/12/12 08:54:18;;;;;;;17.60;14.60;;;-1.30;99.90;;;;;;5015192;28;20292;-74
2022/12/12 08:56:47;;;;;;;45.73;25.40;;;-1.40;99.90;;;;;;5015175;28;20220;-73
2022/12/12 08:59:15;;;;;;;101.27;50.50;;;-1.60;99.90;;;;;;4998276;28;20218;-73
2022/12/12 09:01:44;;;;;;;37.50;27.13;;;-1.80;99.90;;;;;;4995292;28;20688;-75
2022/12/12 09:04:12;;;;;;;18.87;13.90;;;-2.10;99.90;;;;;;4995753;28;20210;-77
2022/12/12 09:06:42;;;;;;;21.40;15.53;;;-2.20;99.90;;;;;;4997056;28;20286;-72
2022/12/12 09:09:10;;;;;;;19.40;15.50;;;-2.60;99.90;;;;;;5001686;28;20668;-73
2022/12/12 09:11:38;;;;;;;20.93;15.07;;;-2.70;99.90;;;;;;5013650;28;20264;-73
2022/12/12 09:14:07;;;;;;;21.10;16.37;;;-2.70;99.90;;;;;;5004163;28;20268;-74
2022/12/12 09:16:35;;;;;;;20.00;15.53;;;-2.60;99.90;;;;;;4999916;28;20203;-73
2022/12/12 09:19:03;;;;;;;20.10;15.80;;;-2.50;99.90;;;;;;4994004;28;20893;-74
2022/12/12 09:21:32;;;;;;;21.80;15.33;;;-2.50;99.90;;;;;;4994065;28;20482;-73
2022/12/12 09:24:02;;;;;;;24.23;17.03;;;-2.40;99.90;;;;;;4998803;28;20553;-75
2022/12/12 09:26:31;;;;;;;22.60;17.47;;;-2.30;99.90;;;;;;5003208;28;20567;-75
2022/12/12 09:28:59;;;;;;;23.97;15.00;;;-2.20;99.90;;;;;;5012006;28;21009;-74
2022/12/12 09:31:27;;;;;;;19.03;14.47;;;-2.20;99.90;;;;;;5011268;28;20472;-73
2022/12/12 09:33:55;;;;;;;19.73;14.47;;;-2.30;99.90;;;;;;5016027;28;20464;-75
2022/12/12 09:36:24;;;;;;;25.23;16.33;;;-2.30;99.90;;;;;;5010610;28;20465;-75
2022/12/12 09:38:53;;;;;;;19.30;13.90;;;-2.20;99.90;;;;;;4997012;28;20461;-76
2022/12/12 09:41:25;;;;;;;18.77;13.77;;;-2.00;99.90;;;;;;4996486;28;20515;-77
2022/12/12 09:43:58;;;;;;;20.80;14.63;;;-1.90;99.90;;;;;;5009300;28;20664;-75
2022/12/12 09:46:34;;;;;;;18.47;13.37;;;-1.80;99.90;;;;;;5004376;28;20309;-74
2022/12/12 09:49:17;;;;;;;17.00;13.10;;;-1.90;99.90;;;;;;4998021;28;20776;-75
2022/12/12 09:51:51;;;;;;;17.43;13.10;;;-2.10;99.90;;;;;;5004306;28;20545;-75
2022/12/12 09:54:21;;;;;;;16.63;12.67;;;-2.10;99.90;;;;;;5022449;28;20512;-75
2022/12/12 09:57:04;;;;;;;17.33;12.73;;;-2.20;99.90;;;;;;5027006;28;20469;-73
2022/12/12 09:59:40;;;;;;;16.77;12.87;;;-2.10;99.90;;;;;;5011553;28;20214;-74
2022/12/12 10:02:29;;;;;;;13.93;11.33;;;-2.00;99.90;;;;;;5025774;28;20468;-77
2022/12/12 10:05:02;;;;;;;13.70;10.40;;;-1.90;99.90;;;;;;5018535;28;20224;-77
2022/12/12 10:07:38;;;;;;;14.97;10.60;;;-1.70;99.90;;;;;;5000232;28;20222;-75
2022/12/12 10:10:17;;;;;;;13.90;11.00;;;-1.30;99.90;;;;;;5020593;28;20205;-74
2022/12/12 10:12:47;;;;;;;22.70;17.63;;;-1.40;99.90;;;;;;5020015;28;20232;-74
2022/12/12 10:15:27;;;;;;;20.58;18.38;;;-1.60;99.90;;;;;;5008345;28;20467;-77
2022/12/12 10:17:58;;;;;;;20.13;18.13;;;-1.10;99.90;;;;;;5006331;28;20201;-74
2022/12/12 10:20:36;;;;;;;13.73;10.80;;;-1.10;99.90;;;;;;5004664;28;20197;-76
2022/12/12 10:23:14;;;;;;;14.90;10.83;;;-0.50;99.90;;;;;;5001693;28;20627;-74
2022/12/12 10:25:49;;;;;;;14.47;11.60;;;-0.40;99.90;;;;;;4997553;28;20586;-73
2022/12/12 10:28:21;;;;;;;14.10;10.77;;;-0.10;99.90;;;;;;5016105;28;20288;-76
2022/12/12 10:31:05;;;;;;;14.13;10.67;;;0.50;99.90;;;;;;5001245;28;20323;-74
2022/12/12 10:33:46;;;;;;;12.30;9.67;;;0.60;99.90;;;;;;5002160;28;20877;-78
2022/12/12 10:36:25;;;;;;;12.40;11.10;;;1.10;99.90;;;;;;5004477;28;20875;-73
2022/12/12 10:39:07;;;;;;;12.63;10.60;;;1.60;99.90;;;;;;4995465;28;20257;-75
2022/12/12 10:41:44;;;;;;;13.97;12.43;;;1.30;99.90;;;;;;5005846;28;20229;-75
2022/12/12 10:44:25;;;;;;;12.20;10.70;;;1.10;99.90;;;;;;5021804;28;20238;-76
2022/12/12 10:47:00;;;;;;;11.50;9.63;;;1.30;99.90;;;;;;5020343;28;20346;-74
2022/12/12 10:49:30;;;;;;;13.23;9.90;;;1.50;99.90;;;;;;5018970;28;20216;-76
2022/12/12 10:52:06;;;;;;;11.53;10.03;;;1.80;99.90;;;;;;5015242;28;20921;-77
2022/12/12 10:54:45;;;;;;;12.87;10.60;;;2.00;99.90;;;;;;5011347;28;20238;-74
2022/12/12 10:57:21;;;;;;;11.73;10.00;;;2.50;99.90;;;;;;5001456;28;20198;-77
2022/12/12 10:59:53;;;;;;;14.63;10.37;;;2.90;99.90;;;;;;5000841;28;20214;-77
2022/12/12 11:02:34;;;;;;;11.77;10.20;;;3.10;99.90;;;;;;5011885;28;20213;-80
2022/12/12 11:05:09;;;;;;;14.90;11.47;;;3.70;99.90;;;;;;4999966;28;20201;-78
2022/12/12 11:07:40;;;;;;;11.10;9.93;;;4.00;99.90;;;;;;5009919;28;20213;-77
2022/12/12 11:10:22;;;;;;;11.38;10.18;;;4.00;99.90;;;;;;5010653;28;20441;-75
2022/12/12 11:12:58;;;;;;;11.67;10.20;;;3.70;99.90;;;;;;4996136;28;20226;-76
2022/12/12 11:15:33;;;;;;;11.23;10.10;;;3.10;99.90;;;;;;4996089;28;20621;-78
2022/12/12 11:18:02;;;;;;;11.17;9.73;;;2.80;99.90;;;;;;4995136;28;20225;-76
2022/12/12 11:20:33;;;;;;;11.63;10.20;;;2.70;99.90;;;;;;5011404;28;20205;-76
2022/12/12 11:23:02;;;;;;;13.00;10.57;;;2.10;99.90;;;;;;5023878;28;20240;-77
2022/12/12 11:25:31;;;;;;;11.57;10.30;;;1.60;99.90;;;;;;5025823;28;20577;-76
2022/12/12 11:28:03;;;;;;;11.87;10.57;;;1.20;99.90;;;;;;5017289;28;20233;-77
2022/12/12 11:30:41;;;;;;;13.03;10.57;;;0.70;99.90;;;;;;5017065;28;20208;-75
2022/12/12 11:33:18;;;;;;;14.23;10.17;;;0.40;99.90;;;;;;5017188;28;20215;-77
2022/12/12 11:35:52;;;;;;;14.57;11.10;;;0.50;99.90;;;;;;5017918;28;20255;-76
2022/12/12 11:38:24;;;;;;;13.27;9.97;;;0.30;99.90;;;;;;5008073;28;20585;-74
2022/12/12 11:40:59;;;;;;;14.00;10.80;;;0.00;99.90;;;;;;4997460;28;20332;-75
2022/12/12 11:43:30;;;;;;;12.97;10.80;;;0.10;99.90;;;;;;5013934;28;20268;-76
2022/12/12 11:46:07;;;;;;;13.97;10.70;;;0.20;99.90;;;;;;5009463;28;20209;-75
2022/12/12 11:48:55;;;;;;;15.07;10.57;;;0.30;99.90;;;;;;5013701;28;20236;-75
2022/12/12 11:51:33;;;;;;;13.93;11.17;;;0.30;99.90;;;;;;4997870;28;20264;-79
2022/12/12 11:54:10;;;;;;;15.07;11.53;;;0.40;99.90;;;;;;5016666;28;20217;-76
2022/12/12 11:56:47;;;;;;;13.53;11.00;;;0.30;99.90;;;;;;5005680;28;20193;-76
2022/12/12 11:59:41;;;;;;;12.57;10.43;;;0.30;99.90;;;;;;5010962;28;20311;-78
2022/12/12 12:02:44;;;;;;;13.80;10.93;;;0.40;99.90;;;;;;5010083;28;20297;-78
2022/12/12 12:05:24;;;;;;;12.57;10.33;;;0.40;99.90;;;;;;5014485;28;20273;-77
2022/12/12 12:08:07;;;;;;;16.83;11.80;;;0.10;99.90;;;;;;5007520;28;20207;-77
2022/12/12 12:10:46;;;;;;;17.33;12.43;;;-0.10;99.90;;;;;;5012102;28;20298;-75
2022/12/12 12:13:32;;;;;;;16.83;13.10;;;-0.40;99.90;;;;;;5017360;28;20225;-76
2022/12/12 12:16:09;;;;;;;16.90;13.70;;;-0.40;99.90;;;;;;5014927;28;20267;-75
2022/12/12 12:18:54;;;;;;;52.03;41.20;;;-0.60;99.90;;;;;;5018552;28;20193;-74
2022/12/12 12:21:34;;;;;;;19.33;15.23;;;-0.40;99.90;;;;;;5019995;28;20660;-75
2022/12/12 12:24:36;;;;;;;15.93;12.63;;;0.00;99.90;;;;;;5019098;28;20283;-77
2022/12/12 12:27:13;;;;;;;16.77;13.10;;;0.00;99.90;;;;;;5016313;28;20256;-76
2022/12/12 12:29:59;;;;;;;16.70;11.97;;;0.00;99.90;;;;;;5027147;28;20213;-78
2022/12/12 12:32:42;;;;;;;14.60;11.33;;;-0.20;99.90;;;;;;5015439;28;20236;-77
2022/12/12 12:35:28;;;;;;;15.33;12.60;;;-0.40;99.90;;;;;;5011360;28;20221;-77
2022/12/12 12:38:12;;;;;;;14.03;11.27;;;-0.40;99.90;;;;;;5017256;28;20194;-79
2022/12/12 12:41:09;;;;;;;17.10;12.53;;;-0.40;99.90;;;;;;5017219;28;20174;-78
2022/12/12 12:43:50;;;;;;;14.93;12.07;;;-0.50;99.90;;;;;;5032374;28;20197;-78
2022/12/12 12:46:29;;;;;;;15.13;11.43;;;-0.40;99.90;;;;;;5025685;28;20244;-77
2022/12/12 12:49:03;;;;;;;15.53;12.20;;;-0.40;99.90;;;;;;5036093;28;20219;-77
2022/12/12 12:51:36;;;;;;;16.20;12.00;;;-0.40;99.90;;;;;;5036691;28;20269;-79
2022/12/12 12:54:07;;;;;;;15.13;10.90;;;-0.70;99.90;;;;;;5018425;28;20233;-79
2022/12/12 12:56:40;;;;;;;18.07;11.43;;;-0.60;99.90;;;;;;5019664;28;20279;-78
2022/12/12 12:59:16;;;;;;;15.20;11.00;;;-0.80;99.90;;;;;;5020817;28;20211;-78
2022/12/12 13:01:47;;;;;;;14.67;10.87;;;-0.80;99.90;;;;;;5035608;28;20270;-78
2022/12/12 13:04:21;;;;;;;14.37;10.73;;;-0.90;99.90;;;;;;5020515;28;20234;-77
2022/12/12 13:06:56;;;;;;;15.10;11.57;;;-0.70;99.90;;;;;;5025679;28;20198;-80
2022/12/12 13:09:34;;;;;;;15.83;10.73;;;-0.70;99.90;;;;;;5017696;28;20240;-75